Air — ZCTD7 — position and weather

sailwx.info

Track history (hours):
 
Tides and Currents Weather Stations Pressure Air Temp Water Temp Dewpoint Dewpoint Depression Visibility Wind Speed Wind Dir Waves Ship Positions

Air

Last reported at 2017-Aug-27 06:14 UTC. Time now 2017-Sep-21 03:24 UTC.
Position N 39°09' E 020°12'.
Warning: this ship's position is 24 days out of date.

Length 50 m; draft 2.8 m.

Type: Pleasure craft. MMSI: 319780000.

Date/timePositionNaut miles runAvg speedWind from/ knotsBaromVisibWave heightAir tempDewpointWater temp
2017-Aug-27 06:14N 39°09' E 020°12'  
2017-Aug-24 00:41N 39°33' E 018°52'313.8
2017-Aug-24 00:29N 39°32' E 018°49'1213.6
2017-Aug-23 23:37N 39°24' E 018°37'213.5
2017-Aug-23 23:30N 39°23' E 018°36'713.7
2017-Aug-23 23:00N 39°18' E 018°29'1413.8
2017-Aug-23 21:59N 39°10' E 018°15'  
2017-Aug-21 05:19N 37°51' E 015°18'0 0.0
2017-Aug-21 04:58N 37°51' E 015°18'0 0.0
2017-Aug-20 21:51N 37°51' E 015°18'0 0.0
2017-Aug-20 21:24N 37°51' E 015°18'0 0.0
2017-Aug-20 20:49N 37°51' E 015°18'0 0.0
2017-Aug-20 07:46N 37°51' E 015°18'0 0.1
2017-Aug-20 07:22N 37°51' E 015°18'0 0.0
2017-Aug-20 06:57N 37°51' E 015°18'0 0.0
2017-Aug-20 05:08N 37°51' E 015°18'0 0.0
2017-Aug-20 05:00N 37°51' E 015°18'0 0.0
2017-Aug-20 04:08N 37°51' E 015°18'0 0.1
2017-Aug-20 03:59N 37°51' E 015°18'0 0.0
2017-Aug-20 03:30N 37°51' E 015°18'0 0.1
2017-Aug-20 01:49N 37°50' E 015°18'711.0
2017-Aug-20 01:10N 37°56' E 015°24'413.4
2017-Aug-20 00:53N 37°59' E 015°27'513.7
2017-Aug-20 00:31N 38°03' E 015°31'713.3
2017-Aug-20 00:00N 38°08' E 015°35'612.2
2017-Aug-19 23:30N 38°14' E 015°37'5 9.1
2017-Aug-19 23:00N 38°19' E 015°39'612.6
2017-Aug-19 22:31N 38°23' E 015°34'612.7
2017-Aug-19 22:01N 38°28' E 015°28'1012.5
2017-Aug-19 21:14N 38°36' E 015°21'412.3
2017-Aug-19 20:54N 38°39' E 015°18'8 2.8
2017-Aug-19 18:12N 38°40' E 015°08'2 1.5
2017-Aug-19 16:45N 38°38' E 015°06'0 0.0
2017-Aug-19 14:36N 38°38' E 015°06'0 0.0
2017-Aug-19 14:00N 38°38' E 015°06'0 0.0
2017-Aug-19 13:25N 38°38' E 015°06'0 0.0
2017-Aug-19 12:45N 38°38' E 015°06'0 0.0
2017-Aug-19 11:11N 38°38' E 015°06'0 0.0
2017-Aug-19 10:55N 38°38' E 015°06'2 3.1
2017-Aug-19 10:19N 38°37' E 015°04'1 1.3
2017-Aug-19 09:57N 38°37' E 015°04'0 0.0
2017-Aug-19 09:31N 38°37' E 015°04'0 0.0
2017-Aug-19 09:00N 38°37' E 015°04'0 0.0
2017-Aug-19 08:30N 38°37' E 015°04'0 0.0
2017-Aug-19 07:59N 38°37' E 015°04'0 0.0
2017-Aug-19 07:29N 38°37' E 015°04'0 0.0
2017-Aug-19 07:01N 38°37' E 015°04'0 0.0
2017-Aug-19 06:24N 38°37' E 015°04'0 0.0
2017-Aug-19 05:58N 38°37' E 015°04'1 0.2
2017-Aug-18 21:30N 38°38' E 015°05'0 0.0
2017-Aug-18 21:00N 38°38' E 015°05'0 0.0
2017-Aug-18 20:30N 38°38' E 015°05'10 2.3
2017-Aug-18 16:26N 38°36' E 014°53'511.8
2017-Aug-18 15:59N 38°36' E 014°46'1011.7
2017-Aug-18 15:09N 38°36' E 014°34'2 9.1
2017-Aug-18 14:57N 38°35' E 014°32'0 0.0
2017-Aug-18 13:25N 38°35' E 014°32'0 0.0
2017-Aug-18 12:01N 38°35' E 014°32'0 0.2
2017-Aug-18 11:59N 38°35' E 014°32'0 0.0
2017-Aug-18 11:17N 38°35' E 014°32'0 0.0
2017-Aug-18 11:00N 38°35' E 014°32'2 1.1
2017-Aug-18 09:21N 38°33' E 014°33'0 0.1
2017-Aug-18 09:00N 38°33' E 014°33'0 0.3
2017-Aug-18 08:28N 38°33' E 014°34'1 1.9
2017-Aug-18 08:00N 38°33' E 014°35'0 0.0
2017-Aug-18 07:30N 38°33' E 014°35'0 0.0
2017-Aug-18 07:00N 38°33' E 014°35'0 0.0
2017-Aug-18 05:00N 38°33' E 014°35'0 0.0
2017-Aug-18 04:22N 38°33' E 014°35'0 0.0
2017-Aug-18 03:57N 38°33' E 014°35'4 2.4
2017-Aug-18 02:15N 38°37' E 014°36'511.4
2017-Aug-18 01:51N 38°42' E 014°35'7511.6
2017-Aug-17 19:21N 39°57' E 014°26'411.8
2017-Aug-17 18:59N 40°01' E 014°26'611.9
2017-Aug-17 18:30N 40°07' E 014°26'611.9
2017-Aug-17 18:00N 40°13' E 014°25'611.9
2017-Aug-17 17:30N 40°19' E 014°25'611.9
2017-Aug-17 17:00N 40°24' E 014°24'711.8
2017-Aug-17 16:27N 40°31' E 014°24'4 7.5
2017-Aug-17 15:55N 40°35' E 014°22'0 0.0
2017-Aug-17 15:29N 40°35' E 014°22'0 0.1
2017-Aug-17 14:41N 40°35' E 014°22'0 0.0
2017-Aug-17 14:29N 40°35' E 014°22'0 0.0
2017-Aug-17 13:33N 40°35' E 014°22'0 0.0
2017-Aug-17 13:21N 40°35' E 014°22'1 2.2
2017-Aug-17 12:43N 40°35' E 014°24'1 4.0
2017-Aug-17 12:24N 40°35' E 014°26'0 0.0
2017-Aug-17 11:57N 40°35' E 014°26'0 0.0
2017-Aug-17 11:30N 40°35' E 014°26'0 0.0
2017-Aug-17 10:52N 40°35' E 014°26'0 0.0
2017-Aug-17 10:19N 40°35' E 014°26'0 1.4
2017-Aug-17 09:59N 40°34' E 014°25'8 4.7
2017-Aug-17 08:16N 40°34' E 014°14'  
Track history (hours):
 
Tides and Currents Weather Stations Pressure Air Temp Water Temp Dewpoint Dewpoint Depression Visibility Wind Speed Wind Dir Waves Ship Positions

Air

Last reported at 2017-Aug-27 06:14 UTC. Time now 2017-Sep-21 03:24 UTC.
Position N 39°09' E 020°12'.
Warning: this ship's position is 24 days out of date.

Length 50 m; draft 2.8 m.

Type: Pleasure craft. MMSI: 319780000.

Date/timePositionNaut miles runAvg speedWind from/ knotsBaromVisibWave heightAir tempDewpointWater temp
2017-Aug-27 06:14N 39°09' E 020°12'  
2017-Aug-24 00:41N 39°33' E 018°52'313.8
2017-Aug-24 00:29N 39°32' E 018°49'1213.6
2017-Aug-23 23:37N 39°24' E 018°37'213.5
2017-Aug-23 23:30N 39°23' E 018°36'713.7
2017-Aug-23 23:00N 39°18' E 018°29'1413.8
2017-Aug-23 21:59N 39°10' E 018°15'  
2017-Aug-21 05:19N 37°51' E 015°18'0 0.0
2017-Aug-21 04:58N 37°51' E 015°18'0 0.0
2017-Aug-20 21:51N 37°51' E 015°18'0 0.0
2017-Aug-20 21:24N 37°51' E 015°18'0 0.0
2017-Aug-20 20:49N 37°51' E 015°18'0 0.0
2017-Aug-20 07:46N 37°51' E 015°18'0 0.1
2017-Aug-20 07:22N 37°51' E 015°18'0 0.0
2017-Aug-20 06:57N 37°51' E 015°18'0 0.0
2017-Aug-20 05:08N 37°51' E 015°18'0 0.0
2017-Aug-20 05:00N 37°51' E 015°18'0 0.0
2017-Aug-20 04:08N 37°51' E 015°18'0 0.1
2017-Aug-20 03:59N 37°51' E 015°18'0 0.0
2017-Aug-20 03:30N 37°51' E 015°18'0 0.1
2017-Aug-20 01:49N 37°50' E 015°18'711.0
2017-Aug-20 01:10N 37°56' E 015°24'413.4
2017-Aug-20 00:53N 37°59' E 015°27'513.7
2017-Aug-20 00:31N 38°03' E 015°31'713.3
2017-Aug-20 00:00N 38°08' E 015°35'612.2
2017-Aug-19 23:30N 38°14' E 015°37'5 9.1
2017-Aug-19 23:00N 38°19' E 015°39'612.6
2017-Aug-19 22:31N 38°23' E 015°34'612.7
2017-Aug-19 22:01N 38°28' E 015°28'1012.5
2017-Aug-19 21:14N 38°36' E 015°21'412.3
2017-Aug-19 20:54N 38°39' E 015°18'8 2.8
2017-Aug-19 18:12N 38°40' E 015°08'2 1.5
2017-Aug-19 16:45N 38°38' E 015°06'0 0.0
2017-Aug-19 14:36N 38°38' E 015°06'0 0.0
2017-Aug-19 14:00N 38°38' E 015°06'0 0.0
2017-Aug-19 13:25N 38°38' E 015°06'0 0.0
2017-Aug-19 12:45N 38°38' E 015°06'0 0.0
2017-Aug-19 11:11N 38°38' E 015°06'0 0.0
2017-Aug-19 10:55N 38°38' E 015°06'2 3.1
2017-Aug-19 10:19N 38°37' E 015°04'1 1.3
2017-Aug-19 09:57N 38°37' E 015°04'0 0.0
2017-Aug-19 09:31N 38°37' E 015°04'0 0.0
2017-Aug-19 09:00N 38°37' E 015°04'0 0.0
2017-Aug-19 08:30N 38°37' E 015°04'0 0.0
2017-Aug-19 07:59N 38°37' E 015°04'0 0.0
2017-Aug-19 07:29N 38°37' E 015°04'0 0.0
2017-Aug-19 07:01N 38°37' E 015°04'0 0.0
2017-Aug-19 06:24N 38°37' E 015°04'0 0.0
2017-Aug-19 05:58N 38°37' E 015°04'1 0.2
2017-Aug-18 21:30N 38°38' E 015°05'0 0.0
2017-Aug-18 21:00N 38°38' E 015°05'0 0.0
2017-Aug-18 20:30N 38°38' E 015°05'10 2.3
2017-Aug-18 16:26N 38°36' E 014°53'511.8
2017-Aug-18 15:59N 38°36' E 014°46'1011.7
2017-Aug-18 15:09N 38°36' E 014°34'2 9.1
2017-Aug-18 14:57N 38°35' E 014°32'0 0.0
2017-Aug-18 13:25N 38°35' E 014°32'0 0.0
2017-Aug-18 12:01N 38°35' E 014°32'0 0.2
2017-Aug-18 11:59N 38°35' E 014°32'0 0.0
2017-Aug-18 11:17N 38°35' E 014°32'0 0.0
2017-Aug-18 11:00N 38°35' E 014°32'2 1.1
2017-Aug-18 09:21N 38°33' E 014°33'0 0.1
2017-Aug-18 09:00N 38°33' E 014°33'0 0.3
2017-Aug-18 08:28N 38°33' E 014°34'1 1.9
2017-Aug-18 08:00N 38°33' E 014°35'0 0.0
2017-Aug-18 07:30N 38°33' E 014°35'0 0.0
2017-Aug-18 07:00N 38°33' E 014°35'0 0.0
2017-Aug-18 05:00N 38°33' E 014°35'0 0.0
2017-Aug-18 04:22N 38°33' E 014°35'0 0.0
2017-Aug-18 03:57N 38°33' E 014°35'4 2.4
2017-Aug-18 02:15N 38°37' E 014°36'511.4
2017-Aug-18 01:51N 38°42' E 014°35'7511.6
2017-Aug-17 19:21N 39°57' E 014°26'411.8
2017-Aug-17 18:59N 40°01' E 014°26'611.9
2017-Aug-17 18:30N 40°07' E 014°26'611.9
2017-Aug-17 18:00N 40°13' E 014°25'611.9
2017-Aug-17 17:30N 40°19' E 014°25'611.9
2017-Aug-17 17:00N 40°24' E 014°24'711.8
2017-Aug-17 16:27N 40°31' E 014°24'4 7.5
2017-Aug-17 15:55N 40°35' E 014°22'0 0.0
2017-Aug-17 15:29N 40°35' E 014°22'0 0.1
2017-Aug-17 14:41N 40°35' E 014°22'0 0.0
2017-Aug-17 14:29N 40°35' E 014°22'0 0.0
2017-Aug-17 13:33N 40°35' E 014°22'0 0.0
2017-Aug-17 13:21N 40°35' E 014°22'1 2.2
2017-Aug-17 12:43N 40°35' E 014°24'1 4.0
2017-Aug-17 12:24N 40°35' E 014°26'0 0.0
2017-Aug-17 11:57N 40°35' E 014°26'0 0.0
2017-Aug-17 11:30N 40°35' E 014°26'0 0.0
2017-Aug-17 10:52N 40°35' E 014°26'0 0.0
2017-Aug-17 10:19N 40°35' E 014°26'0 1.4
2017-Aug-17 09:59N 40°34' E 014°25'8 4.7
2017-Aug-17 08:16N 40°34' E 014°14'  

Dump ship's entire track history